Time;durP1;ratioP1;P1;durP2;ratioP2;P2;SDS_P1;SDS_P2;PMS_P1;PMS_P2;Temp;Humidity;BMP_temperature;BMP_pressure;BME280_temperature;BME280_humidity;BME280_pressure;Samples;Min_cycle;Max_cycle;Signal;HPM_P1;HPM_P2
2022/01/10 00:00:34;;;;;;;10.15;4.45;;;;;;;3.46;88.26;99251.47;4872004;29;20037;-75
2022/01/10 00:03:01;;;;;;;9.05;3.83;;;;;;;3.44;88.00;99258.66;4841091;29;20030;-75
2022/01/10 00:05:26;;;;;;;8.93;3.97;;;;;;;3.44;88.10;99258.66;4842010;29;20041;-75
2022/01/10 00:07:52;;;;;;;7.50;3.95;;;;;;;3.43;88.13;99267.56;4856254;29;20053;-75
2022/01/10 00:10:18;;;;;;;10.68;3.88;;;;;;;3.42;88.24;99268.50;4857424;29;20030;-75
2022/01/10 00:12:44;;;;;;;11.45;4.10;;;;;;;3.41;87.99;99274.75;4858341;29;20050;-75
2022/01/10 00:15:11;;;;;;;8.93;4.00;;;;;;;3.41;87.94;99269.47;4841985;29;20072;-75
2022/01/10 00:17:38;;;;;;;9.80;4.47;;;;;;;3.41;87.78;99279.19;4857417;29;20037;-75
2022/01/10 00:20:12;;;;;;;11.07;3.90;;;;;;;3.38;88.13;99280.25;4843233;29;20110;-75
2022/01/10 00:22:40;;;;;;;11.05;4.18;;;;;;;3.38;88.26;99284.69;4856593;29;20044;-75
2022/01/10 00:25:06;;;;;;;9.63;3.80;;;;;;;3.35;87.76;99288.41;4857147;29;20041;-75
2022/01/10 00:27:31;;;;;;;8.48;3.72;;;;;;;3.35;87.79;99288.41;4841639;29;20389;-75
2022/01/10 00:29:57;;;;;;;9.65;4.15;;;;;;;3.34;87.43;99285.88;4840795;29;20038;-74
2022/01/10 00:32:25;;;;;;;9.65;4.10;;;;;;;3.32;87.68;99288.63;4842338;29;20046;-75
2022/01/10 00:34:51;;;;;;;7.30;3.95;;;;;;;3.33;87.63;99292.09;4842760;29;20052;-75
2022/01/10 00:37:17;;;;;;;11.20;3.90;;;;;;;3.31;87.44;99291.34;4840642;29;20053;-75
2022/01/10 00:39:42;;;;;;;9.63;3.60;;;;;;;3.31;87.66;99301.91;4841854;29;20037;-75
2022/01/10 00:42:08;;;;;;;8.70;3.47;;;;;;;3.30;87.60;99303.69;4856888;29;20045;-75
2022/01/10 00:44:38;;;;;;;6.82;3.30;;;;;;;3.32;87.63;99306.28;4833937;29;20045;-75
2022/01/10 00:47:04;;;;;;;8.68;3.35;;;;;;;3.31;87.73;99312.47;4830827;29;20042;-75
2022/01/10 00:49:30;;;;;;;8.65;3.40;;;;;;;3.31;87.40;99318.63;4841754;29;20077;-75
2022/01/10 00:51:55;;;;;;;8.00;3.72;;;;;;;3.30;87.57;99324.00;4840032;29;20041;-75
2022/01/10 00:54:21;;;;;;;10.25;3.58;;;;;;;3.28;87.68;99324.09;4856320;29;20046;-75
2022/01/10 00:56:46;;;;;;;6.75;3.50;;;;;;;3.28;87.80;99326.75;4825874;29;20038;-75
2022/01/10 00:59:11;;;;;;;9.30;3.47;;;;;;;3.27;87.61;99327.69;4840026;29;20392;-75
2022/01/10 01:01:37;;;;;;;7.40;3.05;;;;;;;3.25;87.93;99329.59;4840609;29;20049;-75
2022/01/10 01:04:03;;;;;;;6.63;3.30;;;;;;;3.24;87.29;99322.63;4840940;29;21049;-75
2022/01/10 01:06:28;;;;;;;7.82;3.35;;;;;;;3.22;87.39;99321.06;4823793;29;20046;-75
2022/01/10 01:08:59;;;;;;;11.30;3.50;;;;;;;3.19;87.34;99321.25;4841524;29;20041;-75
2022/01/10 01:14:11;;;;;;;7.10;2.95;;;;;;;3.17;87.17;99334.59;4859981;29;20124;-75
2022/01/10 01:24:25;;;;;;;8.35;3.53;;;;;;;3.14;87.41;99353.28;4853464;29;20135;-75
2022/01/10 01:26:52;;;;;;;6.05;3.08;;;;;;;3.12;87.00;99358.69;4866320;29;20093;-75
2022/01/10 01:29:23;;;;;;;6.60;3.05;;;;;;;3.11;87.01;99370.19;4850499;29;20120;-75
2022/01/10 01:31:49;;;;;;;10.35;3.15;;;;;;;3.12;87.11;99371.88;4849386;29;21094;-75
2022/01/10 01:34:15;;;;;;;6.50;3.25;;;;;;;3.09;86.96;99381.81;4850131;29;20078;-75
2022/01/10 01:36:50;;;;;;;7.43;3.13;;;;;;;3.11;87.00;99393.13;4850111;29;20033;-75
2022/01/10 01:39:20;;;;;;;6.57;3.05;;;;;;;3.06;86.65;99390.78;4845739;29;20101;-75
2022/01/10 01:41:47;;;;;;;6.70;3.20;;;;;;;3.07;87.17;99396.91;4850148;29;20121;-74
2022/01/10 01:44:12;;;;;;;10.82;4.47;;;;;;;3.03;86.51;99406.84;4844186;29;20056;-75
2022/01/10 01:46:38;;;;;;;14.82;6.10;;;;;;;3.00;86.38;99403.56;4848952;29;20463;-75
2022/01/10 01:49:05;;;;;;;13.18;6.07;;;;;;;2.99;86.49;99400.09;4865930;29;20702;-75
2022/01/10 01:51:31;;;;;;;11.60;5.78;;;;;;;3.01;86.12;99407.91;4848984;29;20079;-75
2022/01/10 01:53:56;;;;;;;9.02;4.38;;;;;;;2.98;86.27;99408.97;4864370;29;20045;-75
2022/01/10 01:56:23;;;;;;;6.22;3.50;;;;;;;2.98;86.12;99410.75;4848812;29;20097;-75
2022/01/10 01:58:51;;;;;;;6.28;3.50;;;;;;;2.98;86.37;99416.03;4849706;29;20071;-75
2022/01/10 02:01:23;;;;;;;6.63;3.42;;;;;;;2.98;86.27;99416.88;4848983;29;20058;-75
2022/01/10 02:03:49;;;;;;;8.80;3.67;;;;;;;2.99;86.02;99423.84;4833805;29;20053;-75
2022/01/10 02:06:14;;;;;;;7.53;3.03;;;;;;;2.98;86.20;99430.09;4850764;29;20048;-75
2022/01/10 02:08:40;;;;;;;6.20;3.28;;;;;;;2.98;86.49;99434.53;4863740;29;20037;-75
2022/01/10 02:11:07;;;;;;;6.93;3.00;;;;;;;2.97;86.22;99433.69;4849773;29;20034;-75
2022/01/10 02:13:32;;;;;;;8.60;3.33;;;;;;;2.97;86.27;99438.97;4846652;29;20074;-75
2022/01/10 02:16:01;;;;;;;8.23;3.35;;;;;;;2.97;86.04;99446.03;4847615;29;20065;-75
2022/01/10 02:18:27;;;;;;;8.98;3.60;;;;;;;2.95;86.35;99448.78;4863865;29;20059;-75
2022/01/10 02:20:53;;;;;;;5.35;3.10;;;;;;;2.93;86.42;99455.94;4819947;29;20050;-75
2022/01/10 02:23:18;;;;;;;5.63;3.13;;;;;;;2.94;86.26;99455.00;4835332;29;20026;-75
2022/01/10 02:25:45;;;;;;;7.30;3.47;;;;;;;2.94;86.63;99457.66;4850554;29;20040;-75
2022/01/10 02:28:10;;;;;;;6.22;3.17;;;;;;;2.91;86.40;99455.22;4850228;29;20048;-75
2022/01/10 02:30:36;;;;;;;7.03;3.22;;;;;;;2.91;86.30;99457.00;4864083;29;20037;-75
2022/01/10 02:33:03;;;;;;;5.28;2.97;;;;;;;2.88;86.51;99465.13;4865279;29;20071;-75
2022/01/10 02:35:38;;;;;;;7.40;3.53;;;;;;;2.87;86.65;99459.00;4850317;29;20034;-74
2022/01/10 02:38:04;;;;;;;6.57;3.65;;;;;;;2.90;86.32;99455.31;4864027;29;20034;-75
2022/01/10 02:40:31;;;;;;;7.72;3.35;;;;;;;2.89;86.10;99470.31;4833918;29;20063;-75
2022/01/10 02:42:57;;;;;;;9.27;3.53;;;;;;;2.87;86.26;99469.56;4849476;29;20038;-74
2022/01/10 02:45:23;;;;;;;6.25;3.05;;;;;;;2.84;85.76;99475.91;4849864;29;20053;-75
2022/01/10 02:47:49;;;;;;;9.65;3.28;;;;;;;2.84;86.20;99477.69;4880580;29;20038;-75
2022/01/10 02:50:16;;;;;;;8.80;3.63;;;;;;;2.84;86.32;99482.97;4833837;29;20125;-75
2022/01/10 02:52:42;;;;;;;8.75;3.20;;;;;;;2.86;86.33;99486.34;4834124;29;20073;-75
2022/01/10 02:55:08;;;;;;;5.93;3.17;;;;;;;2.86;85.91;99496.91;4848917;29;20045;-75
2022/01/10 02:57:34;;;;;;;7.15;3.70;;;;;;;2.88;86.07;99499.47;4864724;29;20041;-75
2022/01/10 03:00:04;;;;;;;5.95;2.88;;;;;;;2.86;86.26;99496.91;4850613;29;20206;-75
2022/01/10 03:02:33;;;;;;;6.68;3.67;;;;;;;2.84;86.09;99509.38;4864547;29;20894;-75
2022/01/10 03:04:58;;;;;;;9.00;3.33;;;;;;;2.82;85.71;99521.78;4848871;29;20060;-75
2022/01/10 03:07:24;;;;;;;6.03;3.60;;;;;;;2.81;86.28;99525.38;4849492;29;20050;-75
2022/01/10 03:09:51;;;;;;;7.80;3.85;;;;;;;2.79;85.99;99524.63;4849524;29;20050;-75
2022/01/10 03:12:16;;;;;;;9.60;3.10;;;;;;;2.77;86.36;99532.66;4834030;29;20041;-75
2022/01/10 03:14:43;;;;;;;10.82;3.70;;;;;;;2.78;85.96;99534.34;4832320;29;20053;-75
2022/01/10 03:17:10;;;;;;;9.90;3.72;;;;;;;2.76;86.01;99536.25;4867016;29;20041;-75
2022/01/10 03:19:38;;;;;;;7.07;3.50;;;;;;;2.76;85.95;99540.69;4831661;29;21037;-75
2022/01/10 03:22:05;;;;;;;9.20;3.90;;;;;;;2.74;85.52;99540.78;4836555;29;20034;-75
2022/01/10 03:24:30;;;;;;;7.55;3.53;;;;;;;2.73;85.86;99547.00;4851751;29;20071;-75
2022/01/10 03:26:56;;;;;;;7.53;3.17;;;;;;;2.72;85.75;99550.59;4884124;29;20496;-75
2022/01/10 03:29:21;;;;;;;6.57;3.42;;;;;;;2.72;86.27;99552.38;4851936;29;20041;-75
2022/01/10 03:31:47;;;;;;;9.73;3.38;;;;;;;2.71;86.09;99554.16;4867703;29;20048;-75
2022/01/10 03:34:13;;;;;;;9.93;3.78;;;;;;;2.72;85.55;99555.03;4867197;29;20105;-75
2022/01/10 03:36:43;;;;;;;9.07;3.83;;;;;;;2.73;85.95;99565.47;4852224;29;20041;-75
2022/01/10 03:39:09;;;;;;;10.73;3.90;;;;;;;2.71;85.70;99571.81;4868494;29;20037;-75
2022/01/10 03:41:35;;;;;;;6.60;3.28;;;;;;;2.71;85.70;99575.28;4851054;29;20036;-75
2022/01/10 03:44:02;;;;;;;8.35;3.70;;;;;;;2.72;85.40;99576.97;4853424;29;20044;-75
2022/01/10 03:46:28;;;;;;;8.43;3.92;;;;;;;2.74;86.16;99582.16;4850886;29;20041;-75
2022/01/10 03:48:54;;;;;;;9.18;3.42;;;;;;;2.69;85.72;99577.19;4866639;29;20885;-75
2022/01/10 03:51:19;;;;;;;8.35;3.78;;;;;;;2.70;85.54;99591.22;4882845;29;20037;-75
2022/01/10 03:53:45;;;;;;;6.60;3.75;;;;;;;2.68;85.62;99588.69;4851135;29;20749;-75
2022/01/10 03:56:11;;;;;;;9.35;3.80;;;;;;;2.68;85.81;99595.75;4836808;29;20070;-74
2022/01/10 03:58:36;;;;;;;7.32;3.47;;;;;;;2.66;85.90;99595.84;4852126;29;20126;-75
2022/01/10 04:01:03;;;;;;;7.20;3.25;;;;;;;2.66;85.50;99590.56;4851488;29;20041;-75
2022/01/10 04:03:29;;;;;;;7.30;3.42;;;;;;;2.66;86.09;99611.69;4866571;29;20045;-74
2022/01/10 04:05:54;;;;;;;6.15;3.47;;;;;;;2.63;85.66;99611.03;4882490;29;20037;-75
2022/01/10 04:08:20;;;;;;;6.82;3.40;;;;;;;2.64;85.56;99608.31;4852107;29;20041;-75
2022/01/10 04:10:45;;;;;;;8.23;3.63;;;;;;;2.65;85.45;99617.06;4850902;29;20060;-75
2022/01/10 04:13:11;;;;;;;9.50;3.97;;;;;;;2.65;85.42;99617.91;4852316;29;20574;-75
2022/01/10 04:15:36;;;;;;;8.15;3.47;;;;;;;2.66;85.42;99626.69;4843936;29;20047;-74
2022/01/10 04:18:02;;;;;;;7.05;3.00;;;;;;;2.65;85.75;99640.81;4851266;29;20077;-74
2022/01/10 04:20:28;;;;;;;9.35;3.70;;;;;;;2.66;85.56;99650.44;4851081;29;20025;-75
2022/01/10 04:22:54;;;;;;;7.30;3.22;;;;;;;2.69;85.47;99652.88;4866600;29;20186;-74
2022/01/10 04:25:19;;;;;;;9.40;3.72;;;;;;;2.72;85.82;99657.97;4850984;29;20025;-75
2022/01/10 04:27:45;;;;;;;8.25;3.55;;;;;;;2.74;86.18;99664.84;4851303;29;20030;-74
2022/01/10 04:30:10;;;;;;;9.30;3.22;;;;;;;2.73;86.21;99665.78;4852105;29;20033;-75
2022/01/10 04:32:36;;;;;;;8.02;4.03;;;;;;;2.76;85.76;99670.03;4850775;29;20148;-75
2022/01/10 04:35:03;;;;;;;9.57;4.07;;;;;;;2.76;85.96;99676.16;4850729;29;20056;-75
2022/01/10 04:37:28;;;;;;;8.85;4.03;;;;;;;2.76;86.22;99681.44;4865540;29;20065;-75
2022/01/10 04:39:54;;;;;;;6.63;3.58;;;;;;;2.76;86.08;99683.22;4849959;29;20033;-74
2022/01/10 04:42:19;;;;;;;7.93;4.25;;;;;;;2.76;85.79;99683.22;4865357;29;20167;-74
2022/01/10 04:44:45;;;;;;;5.75;3.63;;;;;;;2.74;85.59;99685.13;4850426;29;20041;-74
2022/01/10 04:47:10;;;;;;;9.07;3.83;;;;;;;2.76;86.17;99681.44;4850330;29;20045;-75
2022/01/10 04:50:03;;;;;;;9.73;3.85;;;;;;;2.74;86.28;99699.16;4849269;29;20037;-74
2022/01/10 04:52:21;;;;;;;7.32;4.68;;;;;;;2.71;86.50;99691.44;4866239;29;20068;-74
2022/01/10 04:54:46;;;;;;;9.75;4.50;;;;;;;2.78;86.69;99700.66;4850464;29;20941;-75
2022/01/10 04:57:12;;;;;;;9.95;4.70;;;;;;;2.78;86.56;99705.94;4866343;29;20044;-74
2022/01/10 04:59:37;;;;;;;7.70;4.60;;;;;;;2.79;86.42;99712.06;4851018;29;20614;-74
2022/01/10 05:02:03;;;;;;;12.93;4.75;;;;;;;2.78;86.53;99716.50;4850048;29;20034;-74
2022/01/10 05:04:28;;;;;;;6.72;4.15;;;;;;;2.77;87.27;99716.59;4846047;29;20045;-74
2022/01/10 05:06:54;;;;;;;10.25;4.60;;;;;;;2.75;87.33;99715.84;4851085;29;20041;-74
2022/01/10 05:09:19;;;;;;;8.95;4.10;;;;;;;2.73;86.98;99717.75;4850138;29;20049;-74
2022/01/10 05:11:45;;;;;;;11.13;5.32;;;;;;;2.70;86.76;99725.84;4880819;29;20471;-74
2022/01/10 05:14:11;;;;;;;8.32;4.13;;;;;;;2.63;87.35;99733.28;4850713;29;20060;-74
2022/01/10 05:16:39;;;;;;;6.85;4.38;;;;;;;2.60;86.67;99738.75;4850774;29;20049;-74
2022/01/10 05:19:04;;;;;;;8.57;4.03;;;;;;;2.59;87.61;99742.34;4849844;29;20025;-74
2022/01/10 05:21:30;;;;;;;6.90;4.13;;;;;;;2.59;87.38;99752.06;4863792;29;20033;-74
2022/01/10 05:23:55;;;;;;;7.72;4.28;;;;;;;2.57;86.90;99756.56;4849712;29;20037;-75
2022/01/10 05:26:20;;;;;;;10.65;4.15;;;;;;;2.57;86.78;99759.22;4849321;29;20041;-74
2022/01/10 05:28:46;;;;;;;7.68;4.00;;;;;;;2.58;87.20;99764.41;4850257;29;20036;-74
2022/01/10 05:31:11;;;;;;;8.85;4.15;;;;;;;2.57;87.24;99770.63;4864770;29;20042;-74
2022/01/10 05:33:37;;;;;;;8.18;4.03;;;;;;;2.55;86.91;99780.41;4880572;29;20056;-74
2022/01/10 05:36:02;;;;;;;10.95;4.80;;;;;;;2.51;86.38;99773.63;4849666;29;20086;-74
2022/01/10 05:38:28;;;;;;;10.55;4.47;;;;;;;2.52;86.74;99780.59;4864848;29;20037;-74
2022/01/10 05:40:53;;;;;;;8.98;4.25;;;;;;;2.53;86.89;99796.34;4849506;29;20034;-74
2022/01/10 05:43:19;;;;;;;11.38;4.43;;;;;;;2.51;86.89;99789.47;4849183;29;20033;-74
2022/01/10 05:45:45;;;;;;;10.70;4.47;;;;;;;2.49;86.80;99800.09;4864824;29;20042;-74
2022/01/10 05:48:20;;;;;;;7.75;3.70;;;;;;;2.47;86.53;99806.41;4880000;29;20056;-74
2022/01/10 05:50:45;;;;;;;9.48;4.22;;;;;;;2.48;86.92;99811.59;4850919;29;21089;-74
2022/01/10 05:53:11;;;;;;;10.73;4.45;;;;;;;2.45;86.85;99816.22;4851986;29;20112;-74
2022/01/10 05:55:37;;;;;;;9.80;4.28;;;;;;;2.45;86.56;99821.50;4852951;29;20082;-74
2022/01/10 05:58:04;;;;;;;9.25;4.32;;;;;;;2.43;86.54;99826.00;4853780;29;20064;-74
2022/01/10 06:00:30;;;;;;;10.55;4.82;;;;;;;2.43;86.16;99834.78;4852084;29;20082;-74
2022/01/10 06:02:56;;;;;;;7.38;4.13;;;;;;;2.41;86.67;99838.44;4848062;29;20037;-74
2022/01/10 06:05:24;;;;;;;7.80;4.20;;;;;;;2.42;86.31;99837.50;4867546;29;20109;-74
2022/01/10 06:07:49;;;;;;;9.13;4.20;;;;;;;2.40;85.89;99845.50;4853417;29;20049;-74
2022/01/10 06:10:14;;;;;;;8.10;3.90;;;;;;;2.39;85.62;99853.50;4867615;29;20041;-74
2022/01/10 06:12:40;;;;;;;12.95;4.82;;;;;;;2.40;86.23;99842.88;4853744;29;20052;-74
2022/01/10 06:15:06;;;;;;;8.73;3.92;;;;;;;2.40;85.73;99850.78;4869412;29;20060;-74
2022/01/10 06:17:31;;;;;;;9.57;4.35;;;;;;;2.41;86.82;99859.56;4852800;29;20044;-74
2022/01/10 06:19:56;;;;;;;9.23;4.22;;;;;;;2.42;86.38;99861.25;4882699;29;20040;-74
2022/01/10 06:22:22;;;;;;;9.73;4.20;;;;;;;2.41;86.29;99859.56;4838366;29;20437;-74
2022/01/10 06:24:47;;;;;;;10.05;4.20;;;;;;;2.38;86.47;99859.72;4868434;29;20499;-74
2022/01/10 06:27:13;;;;;;;9.50;4.40;;;;;;;2.40;86.29;99866.63;4868519;29;20374;-74
2022/01/10 06:29:38;;;;;;;11.05;4.85;;;;;;;2.37;86.42;99868.59;4852057;29;20124;-74
2022/01/10 06:32:04;;;;;;;9.20;4.15;;;;;;;2.39;86.55;99871.97;4867432;29;20051;-74
2022/01/10 06:34:30;;;;;;;9.52;4.68;;;;;;;2.41;86.37;99872.75;4852183;29;20074;-75
2022/01/10 06:36:55;;;;;;;7.60;4.25;;;;;;;2.40;86.33;99869.25;4868705;29;20041;-74
2022/01/10 06:39:21;;;;;;;11.85;4.38;;;;;;;2.37;86.85;99881.78;4837495;29;20038;-74
2022/01/10 06:41:46;;;;;;;10.52;4.82;;;;;;;2.34;86.57;99876.66;4867939;29;20045;-74
2022/01/10 06:44:12;;;;;;;6.90;3.63;;;;;;;2.35;86.43;99880.97;4868004;29;20037;-74
2022/01/10 06:46:37;;;;;;;10.35;4.60;;;;;;;2.33;86.19;99893.41;4853571;29;20051;-74
2022/01/10 06:49:02;;;;;;;8.05;4.32;;;;;;;2.22;86.96;99900.16;4851963;29;20046;-75
2022/01/10 06:51:28;;;;;;;8.20;3.92;;;;;;;2.19;86.55;99908.25;4852987;29;20150;-75
2022/01/10 06:53:53;;;;;;;7.93;4.07;;;;;;;2.23;86.83;99911.56;4852678;29;20045;-75
2022/01/10 06:56:19;;;;;;;8.77;4.15;;;;;;;2.25;87.38;99914.09;4867585;29;20098;-75
2022/01/10 06:58:44;;;;;;;10.93;4.60;;;;;;;2.25;87.15;99914.97;4853090;29;20041;-74
2022/01/10 07:01:10;;;;;;;9.98;4.40;;;;;;;2.24;86.86;99930.88;4851871;29;20037;-74
2022/01/10 07:03:35;;;;;;;8.93;4.53;;;;;;;2.24;87.52;99936.16;4852375;29;20070;-75
2022/01/10 07:06:01;;;;;;;13.13;4.70;;;;;;;2.23;87.03;99935.28;4851375;29;20061;-75
2022/01/10 07:08:26;;;;;;;10.05;4.60;;;;;;;2.23;87.06;99943.22;4848982;29;20396;-74
2022/01/10 07:10:53;;;;;;;8.50;4.10;;;;;;;2.22;86.90;99955.56;4852702;29;20076;-75
2022/01/10 07:13:18;;;;;;;8.27;4.00;;;;;;;2.24;87.02;99965.16;4852044;29;20045;-74
2022/01/10 07:15:44;;;;;;;9.10;4.13;;;;;;;2.22;87.62;99975.81;4854089;29;20048;-75
2022/01/10 07:18:10;;;;;;;7.20;3.67;;;;;;;2.25;87.60;99980.06;4852818;29;20048;-75
2022/01/10 07:20:35;;;;;;;10.25;4.28;;;;;;;2.24;87.33;99991.53;4882648;29;20041;-75
2022/01/10 07:23:00;;;;;;;11.57;6.30;;;;;;;2.17;87.78;99996.31;4851500;29;20033;-75
2022/01/10 07:25:26;;;;;;;13.02;7.13;;;;;;;2.20;87.80;100001.41;4852608;29;20033;-75
2022/01/10 07:27:51;;;;;;;10.70;5.88;;;;;;;2.20;87.31;100012.81;4838443;29;20041;-75
2022/01/10 07:30:17;;;;;;;12.63;5.88;;;;;;;2.21;87.30;100014.50;4853230;29;20037;-75
2022/01/10 07:32:42;;;;;;;8.48;5.05;;;;;;;2.20;87.28;100012.81;4852231;29;20041;-74
2022/01/10 07:35:10;;;;;;;9.07;5.05;;;;;;;2.15;88.28;100021.91;4850819;29;20498;-74
2022/01/10 07:37:35;;;;;;;10.68;5.15;;;;;;;2.15;86.95;100029.81;4865610;29;20048;-74
2022/01/10 07:40:01;;;;;;;10.15;5.00;;;;;;;2.15;87.32;100033.31;4834988;29;20029;-75
2022/01/10 07:42:26;;;;;;;9.68;4.97;;;;;;;2.18;87.20;100034.94;4836549;29;20045;-75
2022/01/10 07:44:51;;;;;;;9.50;4.88;;;;;;;2.18;87.14;100048.97;4851228;29;20040;-74
2022/01/10 07:47:17;;;;;;;9.10;4.38;;;;;;;2.20;87.02;100055.03;4851813;29;20037;-74
2022/01/10 07:49:42;;;;;;;8.10;4.25;;;;;;;2.20;87.17;100055.03;4867784;29;20428;-75
2022/01/10 07:52:08;;;;;;;10.10;4.78;;;;;;;2.22;86.87;100066.34;4852615;29;20042;-75
2022/01/10 07:54:33;;;;;;;9.38;4.60;;;;;;;2.24;87.42;100070.69;4865217;29;20085;-75
2022/01/10 07:56:59;;;;;;;9.50;4.97;;;;;;;2.24;87.37;100074.16;4882100;29;20033;-75
2022/01/10 07:59:24;;;;;;;10.48;4.60;;;;;;;2.23;87.09;100083.00;4867125;29;20694;-75
2022/01/10 08:01:50;;;;;;;9.57;4.28;;;;;;;2.21;87.08;100083.09;4851189;29;20432;-75
2022/01/10 08:04:16;;;;;;;7.57;4.10;;;;;;;2.25;86.36;100089.06;4868271;29;20045;-74
2022/01/10 08:06:41;;;;;;;10.07;4.43;;;;;;;2.25;86.85;100094.34;4851417;29;20082;-74
2022/01/10 08:09:07;;;;;;;9.20;4.30;;;;;;;2.30;87.21;100102.84;4866272;29;20042;-75
2022/01/10 08:11:33;;;;;;;6.88;4.10;;;;;;;2.34;86.96;100098.25;4850857;29;20041;-75
2022/01/10 08:13:58;;;;;;;9.88;4.65;;;;;;;2.31;87.03;100103.72;4865725;29;20149;-75
2022/01/10 08:16:24;;;;;;;9.05;4.25;;;;;;;2.31;87.56;100103.72;4865432;29;20033;-75
2022/01/10 08:18:52;;;;;;;7.65;3.92;;;;;;;2.34;87.09;100114.94;4848793;29;20104;-75
2022/01/10 08:21:17;;;;;;;7.90;4.30;;;;;;;2.36;87.78;100106.94;4879149;29;20041;-75
2022/01/10 08:23:43;;;;;;;9.45;4.28;;;;;;;2.37;87.53;100109.53;4851268;29;20077;-75
2022/01/10 08:26:09;;;;;;;8.38;4.20;;;;;;;2.39;87.97;100112.09;4851176;29;20029;-75
2022/01/10 08:28:38;;;;;;;8.52;4.40;;;;;;;2.37;88.11;100120.09;4865943;29;20033;-74
2022/01/10 08:31:04;;;;;;;14.07;6.18;;;;;;;2.34;87.73;100116.72;4852319;29;20504;-74
2022/01/10 08:33:29;;;;;;;7.88;4.80;;;;;;;2.34;88.22;100133.41;4851504;29;20072;-75
2022/01/10 08:35:55;;;;;;;9.15;4.43;;;;;;;2.32;88.17;100126.53;4866161;29;20033;-75
2022/01/10 08:38:20;;;;;;;8.13;4.13;;;;;;;2.25;87.95;100127.78;4853379;29;20049;-75
2022/01/10 08:40:46;;;;;;;9.25;4.03;;;;;;;2.28;88.71;100139.03;4852014;29;20041;-75
2022/01/10 08:43:12;;;;;;;7.68;4.45;;;;;;;2.30;88.73;100146.84;4851278;29;20598;-75
2022/01/10 08:45:40;;;;;;;6.97;4.18;;;;;;;2.30;88.58;100138.94;4852089;29;20045;-75
2022/01/10 08:48:08;;;;;;;7.85;4.05;;;;;;;2.29;88.59;100147.78;4881324;29;20062;-75
2022/01/10 08:51:11;;;;;;;;;;;;;;;;;;;;;
2022/01/10 08:53:42;;;;;;;7.93;4.25;;;;;;;2.29;88.14;100159.19;4866131;29;20120;-77
2022/01/10 08:56:51;;;;;;;;;;;;;;;;;;;;;
2022/01/10 09:00:24;;;;;;;8.55;4.40;;;;;;;2.32;88.58;100164.31;4806778;29;20106;-78
2022/01/10 09:03:29;;;;;;;;;;;;;;;;;;;;;
2022/01/10 09:06:46;;;;;;;;;;;;;;;;;;;;;
2022/01/10 09:10:16;;;;;;;8.77;4.68;;;;;;;2.30;88.76;100192.56;4764872;30;20040;-80
2022/01/10 09:13:48;;;;;;;;;;;;;;;;;;;;;
2022/01/10 09:33:53;;;;;;;;;;;;;;;;;;;;;
2022/01/10 09:44:34;;;;;;;;;;;;;;;;;;;;;
2022/01/10 09:48:07;;;;;;;;;;;;;;;;;;;;;
2022/01/10 09:55:35;;;;;;;;;;;;;;;;;;;;;
2022/01/10 09:58:13;;;;;;;6.15;4.38;;;;;;;2.56;90.22;100245.78;4702416;30;20053;-79
2022/01/10 10:01:36;;;;;;;;;;;;;;;;;;;;;
2022/01/10 10:15:30;;;;;;;;;;;;;;;;;;;;;
2022/01/10 10:18:36;;;;;;;;;;;;;;;;;;;;;
2022/01/10 10:29:14;;;;;;;;;;;;;;;;;;;;;
2022/01/10 10:35:43;;;;;;;18.25;9.32;;;;;;;2.86;91.56;100286.44;4588269;30;20039;-78
2022/01/10 10:39:06;;;;;;;;;;;;;;;;;;;;;
2022/01/10 10:42:29;;;;;;;13.38;6.80;;;;;;;2.91;91.47;100288.81;4695271;30;20114;-78
2022/01/10 10:45:45;;;;;;;;;;;;;;;;;;;;;
2022/01/10 10:49:07;;;;;;;11.20;6.05;;;;;;;2.90;91.77;100295.91;4661112;30;20651;-81
2022/01/10 10:55:56;;;;;;;;;;;;;;;;;;;;;
2022/01/10 10:59:29;;;;;;;;;;;;;;;;;;;;;
2022/01/10 11:02:18;;;;;;;16.10;7.88;;;;;;;3.02;91.84;100312.88;4718975;30;20056;-79
2022/01/10 11:05:06;;;;;;;;;;;;;;;;;;;;;
2022/01/10 11:08:13;;;;;;;;;;;;;;;;;;;;;
2022/01/10 11:17:47;;;;;;;17.75;8.50;;;;;;;3.17;92.03;100339.31;4852180;29;20048;-78
2022/01/10 11:24:41;;;;;;;;;;;;;;;;;;;;;
2022/01/10 11:28:01;;;;;;;;;;;;;;;;;;;;;
2022/01/10 11:34:46;;;;;;;;;;;;;;;;;;;;;
2022/01/10 11:44:38;;;;;;;;;;;;;;;;;;;;;
2022/01/10 11:48:06;;;;;;;;;;;;;;;;;;;;;
2022/01/10 11:58:40;;;;;;;8.63;2.30;;;;;;;3.42;88.68;100362.66;4753086;29;20076;-78
2022/01/10 12:01:44;;;;;;;5.82;2.25;;;;;;;3.42;88.78;100373.25;4806406;29;20136;-79
2022/01/10 12:05:01;;;;;;;10.98;2.65;;;;;;;3.44;88.01;100375.81;4831972;29;20127;-79
2022/01/10 12:11:52;;;;;;;6.03;2.22;;;;;;;3.53;88.36;100382.38;4827485;29;20046;-79
2022/01/10 12:23:00;;;;;;;9.52;2.95;;;;;;;3.59;87.59;100411.13;4863929;29;20057;-79
2022/01/10 12:26:16;;;;;;;8.80;2.95;;;;;;;3.63;87.01;100412.66;4840331;29;20164;-82
2022/01/10 12:29:58;;;;;;;;;;;;;;;;;;;;;
2022/01/10 12:36:39;;;;;;;;;;;;;;;;;;;;;
2022/01/10 12:40:01;;;;;;;;;;;;;;;;;;;;;
2022/01/10 12:43:25;;;;;;;;;;;;;;;;;;;;;
2022/01/10 12:46:23;;;;;;;10.48;3.60;;;;;;;3.75;86.09;100444.59;4705238;30;20153;-78
2022/01/10 12:53:20;;;;;;;9.10;3.63;;;;;;;3.72;85.31;100457.97;4765115;29;20162;-80
2022/01/10 12:57:07;;;;;;;;;;;;;;;;;;;;;
2022/01/10 13:00:30;;;;;;;8.13;3.90;;;;;;;3.81;86.22;100459.31;4725697;30;20044;-80
2022/01/10 13:03:49;;;;;;;;;;;;;;;;;;;;;
2022/01/10 13:18:05;;;;;;;;;;;;;;;;;;;;;
2022/01/10 13:21:44;;;;;;;10.75;5.60;;;;;;;3.88;86.06;100475.69;4755128;30;20159;-80
2022/01/10 13:29:07;;;;;;;7.43;3.60;;;;;;;3.92;85.84;100478.09;4758593;30;20078;-80
2022/01/10 13:32:35;;;;;;;9.23;3.05;;;;;;;3.99;85.86;100495.34;4755364;30;20051;-78
2022/01/10 13:39:14;;;;;;;8.98;4.20;;;;;;;4.04;86.21;100513.59;4847941;29;20053;-78
2022/01/10 13:52:38;;;;;;;8.05;3.20;;;;;;;3.91;85.84;100520.50;4848725;29;20064;-77
2022/01/10 13:59:08;;;;;;;11.20;3.22;;;;;;;3.87;85.74;100530.41;4820270;29;20105;-79
2022/01/10 14:06:24;;;;;;;;;;;;;;;;;;;;;
2022/01/10 14:16:34;;;;;;;;;;;;;;;;;;;;;
2022/01/10 14:19:45;;;;;;;;;;;;;;;;;;;;;
2022/01/10 14:27:09;;;;;;;;;;;;;;;;;;;;;
2022/01/10 14:34:13;;;;;;;9.77;4.40;;;;;;;3.84;87.66;100582.59;4800719;29;20047;-77
2022/01/10 14:37:37;;;;;;;10.80;3.92;;;;;;;3.80;87.71;100581.91;4796684;29;20047;-77
2022/01/10 14:44:20;;;;;;;;;;;;;;;;;;;;;
2022/01/10 14:47:24;;;;;;;;;;;;;;;;;;;;;
2022/01/10 14:57:22;;;;;;;11.20;4.47;;;;;;;3.72;88.47;100613.16;4712169;30;20049;-77
2022/01/10 15:03:44;;;;;;;9.10;4.20;;;;;;;3.66;89.02;100626.69;4790573;29;19937;-78
2022/01/10 15:07:07;;;;;;;;;;;;;;;;;;;;;
2022/01/10 15:10:45;;;;;;;;;;;;;;;;;;;;;
2022/01/10 15:14:02;;;;;;;10.30;4.53;;;;;;;3.61;89.49;100648.09;4761362;30;20581;-76
2022/01/10 15:17:07;;;;;;;16.20;9.02;;;;;;;3.61;89.91;100648.09;4782477;29;20042;-77
2022/01/10 15:20:32;;;;;;;18.20;10.32;;;;;;;3.59;90.42;100660.53;4782554;29;20145;-77
2022/01/10 15:31:01;;;;;;;;;;;;;;;;;;;;;
2022/01/10 15:51:15;;;;;;;;;;;;;;;;;;;;;
2022/01/10 15:54:35;;;;;;;23.33;14.05;;;;;;;3.28;92.14;100713.16;4727728;30;20112;-76
2022/01/10 15:57:59;;;;;;;19.10;12.55;;;;;;;3.27;91.70;100720.22;4796255;29;20075;-76
2022/01/10 16:04:59;;;;;;;;;;;;;;;;;;;;;
2022/01/10 16:08:07;;;;;;;;;;;;;;;;;;;;;
2022/01/10 16:11:27;;;;;;;;;;;;;;;;;;;;;
2022/01/10 16:21:46;;;;;;;;;;;;;;;;;;;;;
2022/01/10 16:25:09;;;;;;;;;;;;;;;;;;;;;
2022/01/10 16:30:51;;;;;;;13.90;9.25;;;;;;;2.75;91.44;100772.81;4826666;29;20046;-76
2022/01/10 16:33:17;;;;;;;11.60;8.88;;;;;;;2.79;91.82;100777.03;4844442;29;20074;-74
2022/01/10 16:35:43;;;;;;;14.18;10.57;;;;;;;2.76;91.39;100774.53;4858854;29;20029;-74
2022/01/10 16:38:09;;;;;;;15.27;10.15;;;;;;;2.78;91.59;100775.31;4854988;29;20511;-73
2022/01/10 16:40:35;;;;;;;14.85;10.25;;;;;;;2.76;91.21;100784.22;4825499;29;20034;-74
2022/01/10 16:43:01;;;;;;;12.93;9.65;;;;;;;2.74;91.19;100775.53;4845343;29;20551;-74
2022/01/10 16:45:26;;;;;;;11.32;8.13;;;;;;;2.77;91.56;100770.09;4857544;29;20097;-74
2022/01/10 16:47:52;;;;;;;13.02;8.50;;;;;;;2.73;90.75;100772.03;4846397;29;20032;-73
2022/01/10 16:50:17;;;;;;;11.93;8.75;;;;;;;2.71;90.87;100771.25;4843979;29;20929;-74
2022/01/10 16:52:43;;;;;;;11.68;8.93;;;;;;;2.72;90.70;100783.50;4845061;29;20036;-73
2022/01/10 16:55:10;;;;;;;11.65;8.52;;;;;;;2.72;91.06;100786.16;4861697;29;20037;-74
2022/01/10 16:57:35;;;;;;;11.93;7.95;;;;;;;2.68;90.42;100792.50;4831771;29;20078;-74
2022/01/10 17:00:00;;;;;;;12.25;8.25;;;;;;;2.66;90.67;100796.13;4861850;29;20041;-74
2022/01/10 17:02:26;;;;;;;10.88;8.43;;;;;;;2.64;90.22;100803.25;4846191;29;20237;-74
2022/01/10 17:04:52;;;;;;;12.63;8.70;;;;;;;2.63;90.68;100804.19;4841597;29;20038;-74